createdAt,value
2018-06-05T00:00:32.207Z,18.90
2018-06-05T00:03:01.396Z,18.80
2018-06-05T00:07:59.515Z,18.70
2018-06-05T00:10:28.687Z,18.60
2018-06-05T00:12:57.876Z,18.60
2018-06-05T00:15:27.051Z,18.60
2018-06-05T00:17:56.243Z,18.50
2018-06-05T00:20:25.416Z,18.50
2018-06-05T00:22:54.593Z,18.50
2018-06-05T00:25:23.776Z,18.50
2018-06-05T00:27:52.955Z,18.60
2018-06-05T00:32:51.068Z,18.50
2018-06-05T00:35:20.247Z,18.50
2018-06-05T00:37:49.425Z,18.50
2018-06-05T00:40:18.604Z,18.50
2018-06-05T00:42:47.780Z,18.40
2018-06-05T00:45:16.976Z,18.40
2018-06-05T00:47:46.150Z,18.40
2018-06-05T00:50:15.327Z,18.40
2018-06-05T00:52:44.503Z,18.30
2018-06-05T00:55:13.688Z,18.30
2018-06-05T00:57:42.864Z,18.30
2018-06-05T01:00:12.045Z,18.40
2018-06-05T01:02:41.220Z,18.40
2018-06-05T01:05:10.409Z,18.40
2018-06-05T01:07:39.584Z,18.40
2018-06-05T01:10:08.752Z,18.40
2018-06-05T01:12:37.936Z,18.30
2018-06-05T01:15:07.132Z,18.20
2018-06-05T01:17:36.316Z,18.20
2018-06-05T01:20:05.753Z,18.10
2018-06-05T01:22:34.931Z,18.10
2018-06-05T01:25:04.099Z,18.10
2018-06-05T01:27:33.280Z,18.10
2018-06-05T01:30:02.452Z,18.10
2018-06-05T01:32:31.627Z,18.00
2018-06-05T01:35:00.819Z,17.90
2018-06-05T01:37:30.006Z,17.90
2018-06-05T01:39:59.179Z,17.80
2018-06-05T01:42:28.363Z,17.80
2018-06-05T01:44:57.549Z,17.70
2018-06-05T01:47:26.731Z,17.70
2018-06-05T01:49:55.904Z,17.70
2018-06-05T01:52:25.093Z,17.70
2018-06-05T01:54:54.264Z,17.70
2018-06-05T01:57:23.463Z,17.60
2018-06-05T01:59:52.639Z,17.70
2018-06-05T02:02:21.816Z,17.70
2018-06-05T02:04:51.003Z,17.70
2018-06-05T02:07:20.177Z,17.60
2018-06-05T02:09:49.360Z,17.60
2018-06-05T02:12:18.543Z,17.50
2018-06-05T02:14:47.753Z,17.50
2018-06-05T02:17:16.931Z,17.50
2018-06-05T02:19:46.117Z,17.50
2018-06-05T02:22:15.292Z,17.40
2018-06-05T02:24:44.561Z,17.40
2018-06-05T02:27:13.735Z,17.40
2018-06-05T02:29:42.919Z,17.40
2018-06-05T02:32:12.105Z,17.30
2018-06-05T02:34:41.282Z,17.30
2018-06-05T02:37:10.460Z,17.30
2018-06-05T02:39:39.649Z,17.30
2018-06-05T02:42:08.818Z,17.20
2018-06-05T02:44:37.988Z,17.20
2018-06-05T02:47:07.172Z,17.20
2018-06-05T02:49:36.340Z,17.20
2018-06-05T02:52:05.516Z,17.20
2018-06-05T02:54:34.698Z,17.10
2018-06-05T02:57:03.881Z,17.10
2018-06-05T02:59:33.043Z,17.10
2018-06-05T03:02:02.199Z,17.00
2018-06-05T03:04:31.341Z,17.10
2018-06-05T03:07:00.503Z,17.10
2018-06-05T03:09:29.651Z,17.10
2018-06-05T03:11:58.800Z,17.10
2018-06-05T03:14:27.948Z,17.20
2018-06-05T03:16:57.110Z,17.10
2018-06-05T03:19:26.259Z,17.10
2018-06-05T03:21:55.408Z,17.10
2018-06-05T03:24:24.567Z,17.00
2018-06-05T03:26:53.720Z,17.00
2018-06-05T03:29:22.876Z,16.90
2018-06-05T03:31:52.027Z,17.00
2018-06-05T03:34:21.180Z,17.00
2018-06-05T03:36:50.330Z,17.00
2018-06-05T03:39:19.483Z,17.00
2018-06-05T03:41:48.629Z,17.10
2018-06-05T03:46:46.704Z,17.10
2018-06-05T03:49:15.865Z,17.00
2018-06-05T03:51:45.004Z,17.10
2018-06-05T03:54:14.173Z,17.10
2018-06-05T03:56:43.316Z,17.10
2018-06-05T03:59:12.491Z,17.00
2018-06-05T04:04:10.608Z,17.10
2018-06-05T04:06:39.787Z,17.10
2018-06-05T04:09:08.976Z,17.10
2018-06-05T04:11:38.151Z,17.10
2018-06-05T04:14:07.323Z,17.10
2018-06-05T04:16:36.516Z,17.20
2018-06-05T04:19:05.861Z,17.10
2018-06-05T04:21:35.051Z,17.00
2018-06-05T04:24:04.228Z,17.10
2018-06-05T04:26:34.484Z,17.10
2018-06-05T04:31:32.592Z,17.20
2018-06-05T04:34:01.803Z,17.30
2018-06-05T04:36:30.996Z,17.40
2018-06-05T04:39:00.167Z,17.50
2018-06-05T04:41:29.352Z,17.40
2018-06-05T04:43:58.520Z,17.40
2018-06-05T04:46:27.699Z,17.40
2018-06-05T04:48:56.872Z,17.40
2018-06-05T04:51:26.104Z,17.40
2018-06-05T04:53:55.278Z,17.40
2018-06-05T04:56:24.453Z,17.30
2018-06-05T04:58:53.643Z,17.40
2018-06-05T05:01:22.816Z,17.40
2018-06-05T05:03:51.999Z,17.40
2018-06-05T05:06:21.172Z,17.50
2018-06-05T05:08:50.365Z,17.60
2018-06-05T05:11:19.719Z,17.70
2018-06-05T05:13:48.908Z,17.70
2018-06-05T05:16:18.119Z,17.70
2018-06-05T05:18:47.264Z,17.80
2018-06-05T05:21:16.435Z,17.80
2018-06-05T05:23:45.616Z,18.00
2018-06-05T05:28:43.738Z,18.20
2018-06-05T05:31:12.970Z,18.30
2018-06-05T05:33:42.215Z,18.30
2018-06-05T05:38:40.478Z,18.40
2018-06-05T05:41:09.720Z,18.50
2018-06-05T05:43:38.958Z,18.60
2018-06-05T05:46:08.195Z,18.60
2018-06-05T05:51:06.445Z,18.80
2018-06-05T05:53:35.695Z,18.90
2018-06-05T05:56:05.031Z,19.00
2018-06-05T05:58:34.284Z,19.10
2018-06-05T06:01:03.511Z,19.10
2018-06-05T06:03:32.746Z,19.10
2018-06-05T06:06:01.974Z,19.10
2018-06-05T06:08:31.216Z,19.10
2018-06-05T06:11:00.436Z,19.20
2018-06-05T06:13:29.672Z,19.20
2018-06-05T06:15:58.875Z,19.30
2018-06-05T06:18:28.097Z,19.40
2018-06-05T06:20:57.319Z,19.50
2018-06-05T06:23:26.516Z,19.60
2018-06-05T06:25:55.814Z,19.70
2018-06-05T06:28:25.063Z,19.80
2018-06-05T06:33:23.283Z,19.90
2018-06-05T06:35:52.513Z,19.90
2018-06-05T06:38:21.701Z,20.00
2018-06-05T06:40:50.901Z,20.10
2018-06-05T06:43:20.085Z,20.20
2018-06-05T06:45:49.906Z,20.30
2018-06-05T06:48:19.150Z,20.30
2018-06-05T06:53:17.422Z,20.40
2018-06-05T06:55:46.654Z,20.30
2018-06-05T06:58:15.906Z,20.40
2018-06-05T07:00:45.175Z,20.50
2018-06-05T07:03:14.414Z,20.60
2018-06-05T07:05:43.652Z,20.50
2018-06-05T07:10:41.927Z,20.60
2018-06-05T07:13:11.162Z,20.70
2018-06-05T07:15:40.387Z,20.70
2018-06-05T07:18:09.638Z,21.00
2018-06-05T07:20:38.881Z,21.10
2018-06-05T07:23:08.154Z,21.10
2018-06-05T07:25:37.418Z,21.20
2018-06-05T07:28:06.667Z,21.20
2018-06-05T07:30:35.907Z,21.30
2018-06-05T07:33:05.155Z,21.30
2018-06-05T07:35:34.399Z,21.50
2018-06-05T07:38:03.679Z,21.50
2018-06-05T07:40:32.889Z,21.40
2018-06-05T07:43:02.133Z,21.50
2018-06-05T07:45:31.344Z,21.60
2018-06-05T07:48:00.578Z,21.50
2018-06-05T07:50:29.796Z,21.60
2018-06-05T07:52:59.023Z,21.80
2018-06-05T07:55:28.279Z,22.10
2018-06-05T07:57:57.513Z,22.20
2018-06-05T08:00:26.755Z,21.90
2018-06-05T08:02:55.997Z,21.90
2018-06-05T08:05:25.235Z,21.80
2018-06-05T08:07:54.501Z,21.90
2018-06-05T08:10:23.731Z,22.00
2018-06-05T08:12:52.993Z,22.30
2018-06-05T08:15:22.233Z,22.50
2018-06-05T08:17:51.482Z,22.60
2018-06-05T08:20:20.713Z,22.80
2018-06-05T08:22:54.512Z,22.60
2018-06-05T08:25:23.764Z,22.50
2018-06-05T08:27:53.049Z,22.70
2018-06-05T08:30:22.358Z,23.00
2018-06-05T08:32:51.619Z,23.00
2018-06-05T08:35:20.889Z,22.90
2018-06-05T08:37:50.193Z,23.00
2018-06-05T08:40:19.390Z,23.10
2018-06-05T08:42:48.609Z,23.20
2018-06-05T08:45:17.918Z,23.30
2018-06-05T08:47:47.078Z,23.30
2018-06-05T08:50:16.332Z,23.30
2018-06-05T08:52:45.557Z,23.40
2018-06-05T08:55:14.804Z,23.60
2018-06-05T08:57:44.083Z,23.70
2018-06-05T09:02:42.357Z,23.60
2018-06-05T09:05:11.598Z,23.50
2018-06-05T09:07:40.859Z,23.70
2018-06-05T09:10:10.171Z,23.80
2018-06-05T09:12:39.485Z,23.60
2018-06-05T09:15:08.734Z,23.60
2018-06-05T09:17:38.005Z,23.80
2018-06-05T09:20:07.509Z,24.20
2018-06-05T09:22:36.758Z,24.20
2018-06-05T09:25:06.093Z,24.20
2018-06-05T09:27:35.346Z,24.50
2018-06-05T09:30:04.618Z,24.20
2018-06-05T09:32:33.851Z,24.30
2018-06-05T09:35:03.072Z,24.70
2018-06-05T09:37:32.334Z,25.10
2018-06-05T09:40:01.573Z,25.30
2018-06-05T09:42:30.805Z,25.30
2018-06-05T09:45:00.015Z,25.10
2018-06-05T09:47:29.254Z,25.20
2018-06-05T09:49:58.466Z,25.10
2018-06-05T09:54:56.712Z,24.90
2018-06-05T09:57:25.949Z,25.10
2018-06-05T09:59:55.138Z,25.30
2018-06-05T10:04:53.319Z,25.60
2018-06-05T10:07:22.539Z,25.60
2018-06-05T10:09:51.738Z,25.80
2018-06-05T10:12:20.967Z,26.00
2018-06-05T10:14:50.180Z,26.20
2018-06-05T10:17:19.377Z,26.60
2018-06-05T10:19:48.559Z,27.10
2018-06-05T10:22:17.755Z,27.10
2018-06-05T10:24:46.981Z,27.00
2018-06-05T10:27:16.283Z,27.30
2018-06-05T10:29:45.520Z,27.10
2018-06-05T10:32:14.701Z,26.70
2018-06-05T10:34:43.947Z,26.20
2018-06-05T10:37:13.120Z,25.80
2018-06-05T10:39:42.314Z,25.60
2018-06-05T10:42:11.517Z,25.60
2018-06-05T10:44:40.727Z,25.40
2018-06-05T10:47:09.924Z,25.30
2018-06-05T10:49:39.129Z,25.70
2018-06-05T10:52:08.372Z,26.30
2018-06-05T10:54:37.618Z,26.60
2018-06-05T10:57:06.850Z,26.80
2018-06-05T10:59:36.083Z,26.90
2018-06-05T11:02:05.315Z,26.90
2018-06-05T11:04:34.557Z,27.30
2018-06-05T11:07:03.783Z,27.40
2018-06-05T11:09:33.046Z,27.50
2018-06-05T11:12:02.283Z,28.00
2018-06-05T11:17:00.517Z,27.60
2018-06-05T11:19:29.757Z,27.70
2018-06-05T11:21:59.009Z,28.50
2018-06-05T11:24:28.236Z,29.10
2018-06-05T11:26:57.474Z,29.10
2018-06-05T11:29:26.708Z,29.10
2018-06-05T11:32:02.684Z,28.40
2018-06-05T11:34:31.931Z,28.10
2018-06-05T11:37:01.195Z,27.40
2018-06-05T11:39:30.412Z,26.90
2018-06-05T11:41:59.653Z,27.40
2018-06-05T11:44:28.888Z,27.70
2018-06-05T11:46:58.196Z,27.50
2018-06-05T11:49:27.403Z,27.60
2018-06-05T11:51:56.706Z,28.10
2018-06-05T11:56:55.028Z,29.10
2018-06-05T11:59:24.346Z,28.70
2018-06-05T12:01:53.636Z,29.10
2018-06-05T12:04:22.862Z,29.20
2018-06-05T12:06:52.132Z,29.20
2018-06-05T12:09:21.414Z,28.20
2018-06-05T12:11:50.709Z,28.10
2018-06-05T12:16:48.920Z,28.30
2018-06-05T12:19:18.255Z,29.20
2018-06-05T12:21:47.594Z,29.90
2018-06-05T12:24:16.927Z,30.50
2018-06-05T12:26:46.214Z,30.20
2018-06-05T12:29:15.517Z,29.60
2018-06-05T12:31:44.774Z,28.30
2018-06-05T12:34:14.119Z,27.90
2018-06-05T12:36:43.382Z,28.10
2018-06-05T12:39:12.633Z,27.70
2018-06-05T12:41:41.821Z,28.20
2018-06-05T12:44:11.047Z,28.80
2018-06-05T12:46:40.261Z,30.00
2018-06-05T12:49:09.489Z,30.80
2018-06-05T12:54:07.886Z,30.60
2018-06-05T12:56:40.094Z,30.80
2018-06-05T12:59:09.353Z,31.10
2018-06-05T13:04:07.630Z,30.90
2018-06-05T13:06:36.904Z,31.00
2018-06-05T13:09:08.438Z,31.30
2018-06-05T13:11:37.650Z,31.30
2018-06-05T13:14:06.876Z,30.80
2018-06-05T13:16:36.090Z,31.10
2018-06-05T13:24:03.295Z,31.40
2018-06-05T13:26:32.533Z,30.70
2018-06-05T13:29:01.794Z,31.20
2018-06-05T13:31:31.001Z,30.40
2018-06-05T13:34:00.221Z,29.60
2018-06-05T13:36:29.423Z,29.20
2018-06-05T13:38:58.646Z,28.80
2018-06-05T13:41:27.843Z,29.10
2018-06-05T13:43:57.053Z,30.00
2018-06-05T13:46:26.247Z,30.60
2018-06-05T13:51:24.416Z,30.70
2018-06-05T13:53:53.624Z,31.00
2018-06-05T13:56:22.866Z,30.10
2018-06-05T13:58:52.090Z,29.00
2018-06-05T14:01:21.320Z,28.80
2018-06-05T14:06:19.543Z,30.00
2018-06-05T14:08:48.767Z,31.10
2018-06-05T14:11:18.104Z,31.80
2018-06-05T14:13:47.310Z,31.80
2018-06-05T14:16:16.541Z,31.50
2018-06-05T14:18:45.770Z,31.20
2018-06-05T14:21:15.011Z,30.80
2018-06-05T14:26:13.223Z,31.20
2018-06-05T14:28:42.441Z,30.90
2018-06-05T14:31:11.679Z,30.60
2018-06-05T14:33:40.890Z,30.20
2018-06-05T14:36:10.120Z,30.80
2018-06-05T14:38:39.341Z,31.30
2018-06-05T14:41:08.554Z,31.40
2018-06-05T14:43:37.749Z,31.30
2018-06-05T14:46:06.967Z,31.00
2018-06-05T14:48:36.174Z,29.70
2018-06-05T14:51:05.407Z,29.10
2018-06-05T14:53:34.637Z,29.10
2018-06-05T14:56:03.855Z,28.90
2018-06-05T14:58:33.072Z,29.10
2018-06-05T15:01:02.291Z,30.20
2018-06-05T15:03:31.520Z,30.60
2018-06-05T15:06:00.731Z,30.80
2018-06-05T15:08:29.947Z,30.80
2018-06-05T15:10:59.156Z,31.60
2018-06-05T15:15:57.362Z,31.70
2018-06-05T15:20:55.519Z,32.00
2018-06-05T15:23:24.717Z,31.30
2018-06-05T15:25:53.924Z,31.60
2018-06-05T15:28:23.141Z,32.00
2018-06-05T15:33:21.301Z,31.40
2018-06-05T15:35:56.740Z,31.60
2018-06-05T15:38:25.951Z,31.70
2018-06-05T15:40:55.163Z,31.70
2018-06-05T15:43:24.372Z,32.00
2018-06-05T15:48:22.552Z,31.60
2018-06-05T15:50:51.774Z,32.10
2018-06-05T15:53:21.004Z,31.90
2018-06-05T15:55:50.227Z,32.10
2018-06-05T15:58:19.434Z,31.70
2018-06-05T16:00:48.666Z,32.00
2018-06-05T16:03:17.843Z,32.20
2018-06-05T16:08:15.978Z,31.50
2018-06-05T16:10:45.177Z,30.90
2018-06-05T16:13:14.358Z,30.80
2018-06-05T16:15:43.533Z,31.10
2018-06-05T16:18:12.730Z,29.80
2018-06-05T16:23:10.853Z,29.30
2018-06-05T16:25:40.031Z,29.20
2018-06-05T16:28:09.225Z,29.90
2018-06-05T16:30:38.402Z,30.20
2018-06-05T16:35:36.561Z,30.20
2018-06-05T16:38:05.808Z,30.30
2018-06-05T16:40:34.973Z,30.40
2018-06-05T16:43:04.142Z,30.10
2018-06-05T16:45:33.328Z,29.60
2018-06-05T16:48:02.520Z,29.80
2018-06-05T16:50:31.707Z,29.60
2018-06-05T16:53:00.931Z,29.60
2018-06-05T16:55:30.081Z,29.50
2018-06-05T16:57:59.258Z,30.10
2018-06-05T17:00:28.465Z,30.20
2018-06-05T17:05:26.636Z,29.70
2018-06-05T17:07:56.588Z,29.80
2018-06-05T17:10:26.948Z,29.80
2018-06-05T17:12:56.467Z,29.90
2018-06-05T17:15:25.984Z,30.30
2018-06-05T17:17:55.666Z,30.00
2018-06-05T17:20:25.483Z,30.00
2018-06-05T17:22:55.241Z,30.10
2018-06-05T17:30:23.427Z,29.70
2018-06-05T17:32:53.098Z,29.40
2018-06-05T17:35:22.865Z,29.50
2018-06-05T17:37:52.553Z,29.50
2018-06-05T17:47:14.234Z,28.60
2018-06-05T17:52:35.991Z,29.20
2018-06-05T17:55:05.959Z,28.50
2018-06-05T17:57:35.136Z,28.30
2018-06-05T18:00:04.516Z,28.20
2018-06-05T18:02:38.740Z,28.50
2018-06-05T18:05:08.630Z,27.90
2018-06-05T18:07:37.850Z,27.70
2018-06-05T18:10:07.111Z,27.60
2018-06-05T18:12:36.415Z,26.90
2018-06-05T18:15:05.706Z,26.20
2018-06-05T18:17:35.010Z,25.50
2018-06-05T18:20:04.352Z,25.30
2018-06-05T18:22:33.710Z,25.20
2018-06-05T18:25:02.918Z,25.00
2018-06-05T18:27:32.120Z,25.10
2018-06-05T18:32:30.447Z,24.80
2018-06-05T18:34:59.873Z,24.70
2018-06-05T18:37:29.089Z,24.60
2018-06-05T18:39:58.309Z,24.50
2018-06-05T18:47:25.547Z,24.20
2018-06-05T18:49:54.761Z,24.10
2018-06-05T18:54:53.008Z,24.00
2018-06-05T18:57:22.216Z,23.90
2018-06-05T18:59:51.478Z,23.80
2018-06-05T19:04:49.616Z,23.60
2018-06-05T19:07:18.841Z,23.50
2018-06-05T19:09:48.075Z,23.40
2018-06-05T19:12:17.372Z,23.40
2018-06-05T19:14:46.531Z,23.30
2018-06-05T19:17:15.747Z,23.20
2018-06-05T19:19:45.023Z,23.10
2018-06-05T19:22:14.308Z,23.00
2018-06-05T19:24:43.573Z,22.90
2018-06-05T19:27:12.806Z,22.70
2018-06-05T19:29:42.238Z,22.60
2018-06-05T19:32:11.373Z,22.50
2018-06-05T19:34:40.633Z,22.40
2018-06-05T19:37:09.806Z,22.40
2018-06-05T19:39:39.004Z,22.30
2018-06-05T19:42:07.347Z,22.20
2018-06-05T19:47:05.456Z,22.10
2018-06-05T19:49:34.652Z,22.10
2018-06-05T19:52:03.916Z,22.00
2018-06-05T19:54:33.161Z,22.00
2018-06-05T19:57:02.452Z,21.90
2018-06-05T19:59:31.644Z,21.90
2018-06-05T20:02:00.837Z,21.90
2018-06-05T20:04:30.061Z,21.80
2018-06-05T20:06:59.393Z,21.80
2018-06-05T20:11:57.571Z,21.70
2018-06-05T20:14:26.821Z,21.60
2018-06-05T20:16:56.083Z,21.50
2018-06-05T20:19:25.290Z,21.50
2018-06-05T20:21:54.477Z,21.50
2018-06-05T20:26:52.835Z,21.50
2018-06-05T20:29:22.061Z,21.40
2018-06-05T20:31:51.292Z,21.40
2018-06-05T20:34:20.500Z,21.30
2018-06-05T20:36:49.736Z,21.30
2018-06-05T20:39:18.915Z,21.20
2018-06-05T20:41:48.114Z,21.10
2018-06-05T20:44:17.297Z,21.10
2018-06-05T20:46:46.496Z,21.10
2018-06-05T20:49:15.765Z,21.00
2018-06-05T20:51:44.961Z,20.90
2018-06-05T20:54:14.184Z,20.90
2018-06-05T20:59:12.280Z,20.90
2018-06-05T21:01:41.429Z,20.80
2018-06-05T21:06:39.524Z,20.70
2018-06-05T21:09:08.700Z,20.70
2018-06-05T21:11:37.914Z,20.60
2018-06-05T21:14:07.046Z,20.60
2018-06-05T21:16:36.217Z,20.50
2018-06-05T21:19:05.424Z,20.50
2018-06-05T21:21:34.584Z,20.40
2018-06-05T21:24:03.764Z,20.30
2018-06-05T21:26:32.896Z,20.30
2018-06-05T21:29:02.063Z,20.30
2018-06-05T21:31:31.220Z,20.20
2018-06-05T21:34:00.373Z,20.10
2018-06-05T21:36:29.519Z,20.10
2018-06-05T21:38:58.685Z,19.90
2018-06-05T21:43:56.752Z,19.80
2018-06-05T21:46:25.908Z,19.80
2018-06-05T21:48:55.103Z,19.70
2018-06-05T21:51:24.221Z,19.70
2018-06-05T21:53:53.396Z,19.80
2018-06-05T21:56:22.548Z,19.70
2018-06-05T21:58:51.724Z,19.70
2018-06-05T22:01:20.908Z,19.60
2018-06-05T22:03:50.092Z,19.60
2018-06-05T22:06:19.277Z,19.60
2018-06-05T22:08:48.456Z,19.50
2018-06-05T22:11:17.640Z,19.40
2018-06-05T22:13:46.814Z,19.40
2018-06-05T22:16:15.998Z,19.30
2018-06-05T22:18:45.163Z,19.30
2018-06-05T22:21:14.345Z,19.20
2018-06-05T22:23:43.523Z,19.10
2018-06-05T22:26:12.704Z,19.10
2018-06-05T22:28:41.892Z,19.10
2018-06-05T22:31:11.076Z,19.00
2018-06-05T22:33:40.253Z,19.00
2018-06-05T22:36:09.428Z,19.00
2018-06-05T22:38:38.610Z,19.00
2018-06-05T22:41:07.788Z,18.90
2018-06-05T22:43:36.956Z,18.80
2018-06-05T22:46:06.139Z,18.80
2018-06-05T22:48:35.314Z,18.70
2018-06-05T22:51:04.516Z,18.70
2018-06-05T22:53:33.702Z,18.70
2018-06-05T22:56:02.885Z,18.70
2018-06-05T22:58:32.068Z,18.60
2018-06-05T23:01:01.212Z,18.60
2018-06-05T23:03:30.367Z,18.60
2018-06-05T23:08:28.448Z,18.50
2018-06-05T23:10:57.592Z,18.40
2018-06-05T23:13:26.744Z,18.40
2018-06-05T23:15:55.886Z,18.40
2018-06-05T23:18:25.048Z,18.30
2018-06-05T23:23:23.128Z,18.10
2018-06-05T23:28:21.228Z,18.00
2018-06-05T23:30:50.375Z,18.00
2018-06-05T23:33:19.544Z,17.90
2018-06-05T23:35:48.683Z,18.00
2018-06-05T23:38:17.969Z,17.90
2018-06-05T23:40:47.118Z,17.90
2018-06-05T23:45:45.193Z,17.90
2018-06-05T23:48:14.343Z,17.70
2018-06-05T23:50:43.489Z,17.70
2018-06-05T23:53:12.642Z,17.70
2018-06-05T23:55:41.788Z,17.70
2018-06-05T23:58:10.931Z,17.70
